sensor_id;sensor_type;location;lat;lon;timestamp;pressure;altitude;pressure_sealevel;temperature;humidity
55079;BME280;55187;49.496;6.010;2022-07-23T00:01:21;97605.03;;;16.16;100.00
55079;BME280;55187;49.496;6.010;2022-07-23T00:03:48;97605.22;;;16.14;100.00
55079;BME280;55187;49.496;6.010;2022-07-23T00:06:14;97589.44;;;16.13;100.00
55079;BME280;55187;49.496;6.010;2022-07-23T00:08:40;97553.75;;;16.07;100.00
55079;BME280;55187;49.496;6.010;2022-07-23T00:11:06;97514.19;;;16.04;100.00
55079;BME280;55187;49.496;6.010;2022-07-23T00:13:32;97533.00;;;16.09;100.00
55079;BME280;55187;49.496;6.010;2022-07-23T00:15:58;97528.25;;;16.11;100.00
55079;BME280;55187;49.496;6.010;2022-07-23T00:18:24;97527.97;;;16.01;100.00
55079;BME280;55187;49.496;6.010;2022-07-23T00:20:50;97549.34;;;16.01;100.00
55079;BME280;55187;49.496;6.010;2022-07-23T00:23:17;97562.09;;;15.99;100.00
55079;BME280;55187;49.496;6.010;2022-07-23T00:25:43;97573.19;;;15.96;100.00
55079;BME280;55187;49.496;6.010;2022-07-23T00:28:11;97595.13;;;15.98;100.00
55079;BME280;55187;49.496;6.010;2022-07-23T00:30:37;97612.06;;;15.92;100.00
55079;BME280;55187;49.496;6.010;2022-07-23T00:33:05;97618.22;;;15.92;100.00
55079;BME280;55187;49.496;6.010;2022-07-23T00:35:33;97629.19;;;16.03;100.00
55079;BME280;55187;49.496;6.010;2022-07-23T00:38:00;97630.22;;;16.02;100.00
55079;BME280;55187;49.496;6.010;2022-07-23T00:40:29;97623.84;;;16.03;100.00
55079;BME280;55187;49.496;6.010;2022-07-23T00:42:55;97612.28;;;16.09;100.00
55079;BME280;55187;49.496;6.010;2022-07-23T00:45:21;97574.69;;;16.10;100.00
55079;BME280;55187;49.496;6.010;2022-07-23T00:47:48;97573.38;;;16.20;100.00
55079;BME280;55187;49.496;6.010;2022-07-23T00:50:14;97568.84;;;16.20;100.00
55079;BME280;55187;49.496;6.010;2022-07-23T00:52:41;97564.22;;;16.09;100.00
55079;BME280;55187;49.496;6.010;2022-07-23T00:55:07;97538.06;;;16.18;100.00
55079;BME280;55187;49.496;6.010;2022-07-23T00:57:34;97542.13;;;16.02;100.00
55079;BME280;55187;49.496;6.010;2022-07-23T01:00:00;97548.06;;;16.04;100.00
55079;BME280;55187;49.496;6.010;2022-07-23T01:02:27;97541.69;;;15.86;100.00
55079;BME280;55187;49.496;6.010;2022-07-23T01:04:53;97530.34;;;15.91;100.00
55079;BME280;55187;49.496;6.010;2022-07-23T01:07:20;97534.47;;;15.87;100.00
55079;BME280;55187;49.496;6.010;2022-07-23T01:09:46;97549.41;;;15.76;100.00
55079;BME280;55187;49.496;6.010;2022-07-23T01:12:13;97547.69;;;15.82;100.00
55079;BME280;55187;49.496;6.010;2022-07-23T01:14:39;97571.44;;;15.90;100.00
55079;BME280;55187;49.496;6.010;2022-07-23T01:17:05;97580.44;;;15.89;100.00
55079;BME280;55187;49.496;6.010;2022-07-23T01:19:32;97589.94;;;15.85;100.00
55079;BME280;55187;49.496;6.010;2022-07-23T01:21:58;97576.25;;;16.00;100.00
55079;BME280;55187;49.496;6.010;2022-07-23T01:24:27;97574.09;;;15.90;100.00
55079;BME280;55187;49.496;6.010;2022-07-23T01:26:59;97532.88;;;15.86;100.00
55079;BME280;55187;49.496;6.010;2022-07-23T01:29:25;97505.28;;;15.92;100.00
55079;BME280;55187;49.496;6.010;2022-07-23T01:31:53;97512.91;;;15.88;100.00
55079;BME280;55187;49.496;6.010;2022-07-23T01:34:19;97519.06;;;15.89;100.00
55079;BME280;55187;49.496;6.010;2022-07-23T01:36:46;97518.19;;;15.95;100.00
55079;BME280;55187;49.496;6.010;2022-07-23T01:39:14;97520.94;;;15.88;100.00
55079;BME280;55187;49.496;6.010;2022-07-23T01:41:41;97518.78;;;15.79;100.00
55079;BME280;55187;49.496;6.010;2022-07-23T01:44:07;97509.50;;;15.81;100.00
55079;BME280;55187;49.496;6.010;2022-07-23T01:46:33;97512.84;;;15.77;100.00
55079;BME280;55187;49.496;6.010;2022-07-23T01:49:00;97520.78;;;15.83;100.00
55079;BME280;55187;49.496;6.010;2022-07-23T01:51:46;97510.31;;;15.82;100.00
55079;BME280;55187;49.496;6.010;2022-07-23T01:54:29;97502.91;;;15.84;100.00
55079;BME280;55187;49.496;6.010;2022-07-23T01:56:55;97506.31;;;15.72;100.00
55079;BME280;55187;49.496;6.010;2022-07-23T01:59:21;97513.72;;;15.70;100.00
55079;BME280;55187;49.496;6.010;2022-07-23T02:01:48;97529.16;;;15.62;100.00
55079;BME280;55187;49.496;6.010;2022-07-23T02:04:17;97528.34;;;15.61;100.00
55079;BME280;55187;49.496;6.010;2022-07-23T02:06:43;97547.25;;;15.60;100.00
55079;BME280;55187;49.496;6.010;2022-07-23T02:09:10;97552.66;;;15.53;100.00
55079;BME280;55187;49.496;6.010;2022-07-23T02:11:36;97554.56;;;15.46;100.00
55079;BME280;55187;49.496;6.010;2022-07-23T02:14:02;97546.72;;;15.51;100.00
55079;BME280;55187;49.496;6.010;2022-07-23T02:16:28;97545.22;;;15.55;100.00
55079;BME280;55187;49.496;6.010;2022-07-23T02:19:00;97544.44;;;15.55;100.00
55079;BME280;55187;49.496;6.010;2022-07-23T02:21:26;97534.06;;;15.46;100.00
55079;BME280;55187;49.496;6.010;2022-07-23T02:23:52;97538.34;;;15.47;100.00
55079;BME280;55187;49.496;6.010;2022-07-23T02:26:19;97523.59;;;15.45;100.00
55079;BME280;55187;49.496;6.010;2022-07-23T02:28:46;97521.59;;;15.40;100.00
55079;BME280;55187;49.496;6.010;2022-07-23T02:31:13;97514.84;;;15.38;100.00
55079;BME280;55187;49.496;6.010;2022-07-23T02:33:39;97515.28;;;15.35;100.00
55079;BME280;55187;49.496;6.010;2022-07-23T02:36:05;97511.84;;;15.27;100.00
55079;BME280;55187;49.496;6.010;2022-07-23T02:38:31;97513.50;;;15.28;100.00
55079;BME280;55187;49.496;6.010;2022-07-23T02:40:57;97509.63;;;15.24;100.00
55079;BME280;55187;49.496;6.010;2022-07-23T02:43:24;97501.63;;;15.24;100.00
55079;BME280;55187;49.496;6.010;2022-07-23T02:45:50;97507.81;;;15.18;100.00
55079;BME280;55187;49.496;6.010;2022-07-23T02:48:16;97510.44;;;15.00;100.00
55079;BME280;55187;49.496;6.010;2022-07-23T02:50:44;97500.59;;;15.00;100.00
55079;BME280;55187;49.496;6.010;2022-07-23T02:53:13;97508.09;;;14.85;100.00
55079;BME280;55187;49.496;6.010;2022-07-23T02:55:40;97515.03;;;14.86;100.00
55079;BME280;55187;49.496;6.010;2022-07-23T02:58:06;97511.06;;;14.70;100.00
55079;BME280;55187;49.496;6.010;2022-07-23T03:00:32;97514.19;;;14.60;100.00
55079;BME280;55187;49.496;6.010;2022-07-23T03:02:58;97513.63;;;14.52;100.00
55079;BME280;55187;49.496;6.010;2022-07-23T03:05:25;97510.97;;;14.52;100.00
55079;BME280;55187;49.496;6.010;2022-07-23T03:07:51;97515.47;;;14.44;100.00
55079;BME280;55187;49.496;6.010;2022-07-23T03:10:17;97515.31;;;14.39;100.00
55079;BME280;55187;49.496;6.010;2022-07-23T03:12:44;97511.66;;;14.34;100.00
55079;BME280;55187;49.496;6.010;2022-07-23T03:15:10;97514.72;;;14.31;100.00
55079;BME280;55187;49.496;6.010;2022-07-23T03:17:36;97510.66;;;14.28;100.00
55079;BME280;55187;49.496;6.010;2022-07-23T03:20:03;97515.38;;;14.26;100.00
55079;BME280;55187;49.496;6.010;2022-07-23T03:22:29;97524.59;;;14.23;100.00
55079;BME280;55187;49.496;6.010;2022-07-23T03:24:55;97515.19;;;14.21;100.00
55079;BME280;55187;49.496;6.010;2022-07-23T03:27:29;97527.72;;;14.14;100.00
55079;BME280;55187;49.496;6.010;2022-07-23T03:29:58;97532.25;;;14.06;100.00
55079;BME280;55187;49.496;6.010;2022-07-23T03:32:25;97528.97;;;14.04;100.00
55079;BME280;55187;49.496;6.010;2022-07-23T03:34:51;97535.16;;;13.92;100.00
55079;BME280;55187;49.496;6.010;2022-07-23T03:37:18;97537.41;;;13.95;100.00
55079;BME280;55187;49.496;6.010;2022-07-23T03:39:45;97526.59;;;13.90;100.00
55079;BME280;55187;49.496;6.010;2022-07-23T03:42:14;97534.56;;;13.90;100.00
55079;BME280;55187;49.496;6.010;2022-07-23T03:44:41;97532.09;;;13.88;100.00
55079;BME280;55187;49.496;6.010;2022-07-23T03:47:07;97531.06;;;13.89;100.00
55079;BME280;55187;49.496;6.010;2022-07-23T03:49:33;97541.06;;;13.94;100.00
55079;BME280;55187;49.496;6.010;2022-07-23T03:51:59;97544.16;;;13.91;100.00
55079;BME280;55187;49.496;6.010;2022-07-23T03:54:26;97543.34;;;13.90;100.00
55079;BME280;55187;49.496;6.010;2022-07-23T03:56:52;97541.94;;;13.88;100.00
55079;BME280;55187;49.496;6.010;2022-07-23T03:59:19;97547.44;;;13.93;100.00
55079;BME280;55187;49.496;6.010;2022-07-23T04:01:45;97549.06;;;13.87;100.00
55079;BME280;55187;49.496;6.010;2022-07-23T04:04:11;97545.63;;;13.80;100.00
55079;BME280;55187;49.496;6.010;2022-07-23T04:06:40;97551.16;;;13.78;100.00
55079;BME280;55187;49.496;6.010;2022-07-23T04:09:06;97562.38;;;13.87;100.00
55079;BME280;55187;49.496;6.010;2022-07-23T04:11:33;97560.16;;;13.84;100.00
55079;BME280;55187;49.496;6.010;2022-07-23T04:14:00;97561.19;;;13.83;100.00
55079;BME280;55187;49.496;6.010;2022-07-23T04:16:26;97561.78;;;13.85;100.00
55079;BME280;55187;49.496;6.010;2022-07-23T04:18:52;97554.22;;;13.82;100.00
55079;BME280;55187;49.496;6.010;2022-07-23T04:21:21;97548.50;;;13.78;100.00
55079;BME280;55187;49.496;6.010;2022-07-23T04:23:48;97550.53;;;13.83;100.00
55079;BME280;55187;49.496;6.010;2022-07-23T04:26:14;97551.34;;;13.83;100.00
55079;BME280;55187;49.496;6.010;2022-07-23T04:28:40;97558.28;;;13.91;100.00
55079;BME280;55187;49.496;6.010;2022-07-23T04:31:06;97552.16;;;13.91;100.00
55079;BME280;55187;49.496;6.010;2022-07-23T04:33:35;97567.91;;;13.99;100.00
55079;BME280;55187;49.496;6.010;2022-07-23T04:36:05;97565.81;;;14.07;100.00
55079;BME280;55187;49.496;6.010;2022-07-23T04:38:31;97573.16;;;14.12;100.00
55079;BME280;55187;49.496;6.010;2022-07-23T04:41:01;97575.81;;;14.19;100.00
55079;BME280;55187;49.496;6.010;2022-07-23T04:43:27;97582.13;;;14.31;100.00
55079;BME280;55187;49.496;6.010;2022-07-23T04:45:54;97591.31;;;14.35;100.00
55079;BME280;55187;49.496;6.010;2022-07-23T04:48:20;97589.03;;;14.39;100.00
55079;BME280;55187;49.496;6.010;2022-07-23T04:50:51;97603.31;;;14.51;100.00
55079;BME280;55187;49.496;6.010;2022-07-23T04:53:22;97601.91;;;14.48;100.00
55079;BME280;55187;49.496;6.010;2022-07-23T04:55:50;97593.50;;;14.52;100.00
55079;BME280;55187;49.496;6.010;2022-07-23T04:58:16;97597.38;;;14.49;100.00
55079;BME280;55187;49.496;6.010;2022-07-23T05:00:42;97606.22;;;14.50;100.00
55079;BME280;55187;49.496;6.010;2022-07-23T05:03:11;97607.84;;;14.51;100.00
55079;BME280;55187;49.496;6.010;2022-07-23T05:05:37;97603.13;;;14.59;100.00
55079;BME280;55187;49.496;6.010;2022-07-23T05:08:12;97602.50;;;14.64;100.00
55079;BME280;55187;49.496;6.010;2022-07-23T05:10:40;97601.22;;;14.73;100.00
55079;BME280;55187;49.496;6.010;2022-07-23T05:13:06;97600.78;;;14.76;100.00
55079;BME280;55187;49.496;6.010;2022-07-23T05:15:32;97601.09;;;14.93;100.00
55079;BME280;55187;49.496;6.010;2022-07-23T05:17:58;97604.91;;;15.04;100.00
55079;BME280;55187;49.496;6.010;2022-07-23T05:20:26;97597.47;;;15.13;100.00
55079;BME280;55187;49.496;6.010;2022-07-23T05:22:52;97595.63;;;15.13;100.00
55079;BME280;55187;49.496;6.010;2022-07-23T05:25:18;97595.59;;;15.20;100.00
55079;BME280;55187;49.496;6.010;2022-07-23T05:27:44;97601.44;;;15.35;100.00
55079;BME280;55187;49.496;6.010;2022-07-23T05:30:10;97609.44;;;15.35;100.00
55079;BME280;55187;49.496;6.010;2022-07-23T05:32:38;97615.38;;;15.37;100.00
55079;BME280;55187;49.496;6.010;2022-07-23T05:35:11;97620.38;;;15.52;100.00
55079;BME280;55187;49.496;6.010;2022-07-23T05:37:41;97627.34;;;15.53;100.00
55079;BME280;55187;49.496;6.010;2022-07-23T05:40:09;97628.25;;;15.40;100.00
55079;BME280;55187;49.496;6.010;2022-07-23T05:42:39;97629.03;;;15.47;100.00
55079;BME280;55187;49.496;6.010;2022-07-23T05:45:06;97630.38;;;15.57;100.00
55079;BME280;55187;49.496;6.010;2022-07-23T05:47:41;97627.00;;;15.68;100.00
55079;BME280;55187;49.496;6.010;2022-07-23T05:50:07;97630.94;;;15.65;100.00
55079;BME280;55187;49.496;6.010;2022-07-23T05:52:41;97634.03;;;15.62;100.00
55079;BME280;55187;49.496;6.010;2022-07-23T05:55:28;97639.94;;;15.71;100.00
55079;BME280;55187;49.496;6.010;2022-07-23T05:57:56;97643.03;;;15.93;100.00
55079;BME280;55187;49.496;6.010;2022-07-23T06:00:22;97648.84;;;16.08;100.00
55079;BME280;55187;49.496;6.010;2022-07-23T06:02:48;97649.78;;;15.96;100.00
55079;BME280;55187;49.496;6.010;2022-07-23T06:05:16;97654.63;;;16.05;100.00
55079;BME280;55187;49.496;6.010;2022-07-23T06:07:43;97647.66;;;16.04;100.00
55079;BME280;55187;49.496;6.010;2022-07-23T06:10:10;97657.19;;;15.93;100.00
55079;BME280;55187;49.496;6.010;2022-07-23T06:12:37;97653.31;;;15.89;100.00
55079;BME280;55187;49.496;6.010;2022-07-23T06:15:05;97648.00;;;16.08;100.00
55079;BME280;55187;49.496;6.010;2022-07-23T06:17:33;97654.22;;;17.12;100.00
55079;BME280;55187;49.496;6.010;2022-07-23T06:19:59;97661.66;;;18.82;98.36
55079;BME280;55187;49.496;6.010;2022-07-23T06:22:25;97656.22;;;20.19;89.23
55079;BME280;55187;49.496;6.010;2022-07-23T06:24:51;97666.81;;;20.64;84.86
55079;BME280;55187;49.496;6.010;2022-07-23T06:27:19;97657.72;;;21.14;81.60
55079;BME280;55187;49.496;6.010;2022-07-23T06:29:45;97658.00;;;21.40;80.11
55079;BME280;55187;49.496;6.010;2022-07-23T06:32:11;97663.69;;;22.13;75.71
55079;BME280;55187;49.496;6.010;2022-07-23T06:34:37;97668.63;;;21.89;75.86
55079;BME280;55187;49.496;6.010;2022-07-23T06:37:03;97674.31;;;22.25;73.90
55079;BME280;55187;49.496;6.010;2022-07-23T06:39:29;97674.72;;;22.12;74.28
55079;BME280;55187;49.496;6.010;2022-07-23T06:41:57;97677.19;;;23.39;70.57
55079;BME280;55187;49.496;6.010;2022-07-23T06:44:35;97680.44;;;24.34;65.44
55079;BME280;55187;49.496;6.010;2022-07-23T06:47:01;97686.97;;;23.66;67.25
55079;BME280;55187;49.496;6.010;2022-07-23T06:49:28;97680.22;;;23.58;67.87
55079;BME280;55187;49.496;6.010;2022-07-23T06:51:57;97689.72;;;24.02;66.44
55079;BME280;55187;49.496;6.010;2022-07-23T06:54:23;97689.41;;;24.24;65.14
55079;BME280;55187;49.496;6.010;2022-07-23T06:56:50;97694.00;;;25.14;62.15
55079;BME280;55187;49.496;6.010;2022-07-23T06:59:16;97687.47;;;25.70;61.19
55079;BME280;55187;49.496;6.010;2022-07-23T07:01:42;97688.59;;;25.64;61.23
55079;BME280;55187;49.496;6.010;2022-07-23T07:04:08;97692.28;;;25.78;59.88
55079;BME280;55187;49.496;6.010;2022-07-23T07:06:34;97694.28;;;26.60;55.99
55079;BME280;55187;49.496;6.010;2022-07-23T07:09:00;97704.38;;;27.03;57.20
55079;BME280;55187;49.496;6.010;2022-07-23T07:11:27;97701.66;;;27.46;54.99
55079;BME280;55187;49.496;6.010;2022-07-23T07:13:53;97697.88;;;27.98;53.59
55079;BME280;55187;49.496;6.010;2022-07-23T07:16:19;97696.13;;;27.51;53.94
55079;BME280;55187;49.496;6.010;2022-07-23T07:18:46;97709.22;;;28.94;51.28
55079;BME280;55187;49.496;6.010;2022-07-23T07:21:12;97717.81;;;27.56;54.85
55079;BME280;55187;49.496;6.010;2022-07-23T07:23:38;97711.63;;;27.88;54.29
55079;BME280;55187;49.496;6.010;2022-07-23T07:26:04;97707.63;;;28.18;53.11
55079;BME280;55187;49.496;6.010;2022-07-23T07:28:30;97710.69;;;29.41;50.02
55079;BME280;55187;49.496;6.010;2022-07-23T07:30:56;97717.38;;;28.94;51.52
55079;BME280;55187;49.496;6.010;2022-07-23T07:33:22;97715.06;;;28.87;51.88
55079;BME280;55187;49.496;6.010;2022-07-23T07:35:49;97720.75;;;28.30;53.30
55079;BME280;55187;49.496;6.010;2022-07-23T07:38:15;97718.94;;;28.39;52.89
55079;BME280;55187;49.496;6.010;2022-07-23T07:40:41;97710.31;;;29.06;51.51
55079;BME280;55187;49.496;6.010;2022-07-23T07:43:07;97719.16;;;29.40;51.07
55079;BME280;55187;49.496;6.010;2022-07-23T07:45:33;97717.50;;;29.16;51.24
55079;BME280;55187;49.496;6.010;2022-07-23T07:47:59;97723.41;;;29.82;49.51
55079;BME280;55187;49.496;6.010;2022-07-23T07:50:25;97731.22;;;29.75;49.91
55079;BME280;55187;49.496;6.010;2022-07-23T07:52:51;97734.13;;;28.73;52.00
55079;BME280;55187;49.496;6.010;2022-07-23T07:55:18;97732.81;;;29.26;50.91
55079;BME280;55187;49.496;6.010;2022-07-23T07:57:44;97731.63;;;29.04;51.43
55079;BME280;55187;49.496;6.010;2022-07-23T08:00:11;97735.81;;;29.88;49.94
55079;BME280;55187;49.496;6.010;2022-07-23T08:02:46;97735.31;;;30.09;49.14
55079;BME280;55187;49.496;6.010;2022-07-23T08:05:13;97733.41;;;31.03;47.49
55079;BME280;55187;49.496;6.010;2022-07-23T08:07:40;97736.31;;;30.13;49.27
55079;BME280;55187;49.496;6.010;2022-07-23T08:10:07;97738.75;;;29.42;50.70
55079;BME280;55187;49.496;6.010;2022-07-23T08:12:39;97735.31;;;29.50;50.95
55079;BME280;55187;49.496;6.010;2022-07-23T08:15:06;97730.28;;;30.25;49.24
55079;BME280;55187;49.496;6.010;2022-07-23T08:17:32;97736.22;;;29.45;50.63
55079;BME280;55187;49.496;6.010;2022-07-23T08:19:58;97738.28;;;29.62;50.29
55079;BME280;55187;49.496;6.010;2022-07-23T08:22:24;97746.97;;;29.78;48.60
55079;BME280;55187;49.496;6.010;2022-07-23T08:24:51;97741.94;;;29.58;50.31
55079;BME280;55187;49.496;6.010;2022-07-23T08:27:18;97738.88;;;28.95;51.33
55079;BME280;55187;49.496;6.010;2022-07-23T08:29:44;97737.78;;;29.10;51.33
55079;BME280;55187;49.496;6.010;2022-07-23T08:32:11;97734.09;;;29.42;50.94
55079;BME280;55187;49.496;6.010;2022-07-23T08:34:38;97742.41;;;30.64;45.95
55079;BME280;55187;49.496;6.010;2022-07-23T08:37:04;97754.81;;;29.94;49.44
55079;BME280;55187;49.496;6.010;2022-07-23T08:39:30;97750.56;;;29.37;49.82
55079;BME280;55187;49.496;6.010;2022-07-23T08:41:57;97755.34;;;29.04;51.38
55079;BME280;55187;49.496;6.010;2022-07-23T08:44:23;97749.84;;;30.41;49.08
55079;BME280;55187;49.496;6.010;2022-07-23T08:46:50;97747.59;;;29.98;49.75
55079;BME280;55187;49.496;6.010;2022-07-23T08:49:16;97742.19;;;30.06;49.56
55079;BME280;55187;49.496;6.010;2022-07-23T08:51:42;97749.34;;;30.16;49.80
55079;BME280;55187;49.496;6.010;2022-07-23T08:54:10;97751.28;;;30.38;48.55
55079;BME280;55187;49.496;6.010;2022-07-23T08:56:36;97750.28;;;31.45;46.67
55079;BME280;55187;49.496;6.010;2022-07-23T08:59:02;97745.22;;;30.50;47.53
55079;BME280;55187;49.496;6.010;2022-07-23T09:01:29;97749.34;;;31.10;47.58
55079;BME280;55187;49.496;6.010;2022-07-23T09:03:55;97753.53;;;29.27;51.86
55079;BME280;55187;49.496;6.010;2022-07-23T09:06:21;97749.66;;;29.92;49.16
55079;BME280;55187;49.496;6.010;2022-07-23T09:08:47;97751.94;;;29.76;45.25
55079;BME280;55187;49.496;6.010;2022-07-23T09:11:15;97753.31;;;29.23;49.02
55079;BME280;55187;49.496;6.010;2022-07-23T09:13:51;97748.13;;;28.66;53.62
55079;BME280;55187;49.496;6.010;2022-07-23T09:16:20;97750.69;;;28.91;52.06
55079;BME280;55187;49.496;6.010;2022-07-23T09:18:50;97750.38;;;30.06;49.73
55079;BME280;55187;49.496;6.010;2022-07-23T09:24:04;97750.81;;;28.99;52.78
55079;BME280;55187;49.496;6.010;2022-07-23T09:26:34;97757.31;;;29.54;50.06
55079;BME280;55187;49.496;6.010;2022-07-23T09:29:16;97759.56;;;26.45;55.48
55079;BME280;55187;49.496;6.010;2022-07-23T09:31:52;97758.06;;;26.28;56.20
55079;BME280;55187;49.496;6.010;2022-07-23T09:34:26;97755.25;;;26.09;61.05
55079;BME280;55187;49.496;6.010;2022-07-23T09:36:58;97762.03;;;26.41;60.56
55079;BME280;55187;49.496;6.010;2022-07-23T09:39:30;97752.69;;;26.52;58.26
55079;BME280;55187;49.496;6.010;2022-07-23T09:44:41;97768.09;;;27.77;55.17
55079;BME280;55187;49.496;6.010;2022-07-23T09:47:15;97768.34;;;29.07;47.27
55079;BME280;55187;49.496;6.010;2022-07-23T09:52:26;97770.78;;;27.39;50.38
55079;BME280;55187;49.496;6.010;2022-07-23T09:54:54;97775.81;;;28.41;48.48
55079;BME280;55187;49.496;6.010;2022-07-23T09:57:23;97772.25;;;27.51;57.24
55079;BME280;55187;49.496;6.010;2022-07-23T09:59:49;97776.78;;;27.12;56.21
55079;BME280;55187;49.496;6.010;2022-07-23T10:02:16;97786.34;;;26.86;58.81
55079;BME280;55187;49.496;6.010;2022-07-23T10:05:02;97790.47;;;27.50;58.08
55079;BME280;55187;49.496;6.010;2022-07-23T10:07:49;97790.47;;;27.93;55.70
55079;BME280;55187;49.496;6.010;2022-07-23T10:10:28;97793.09;;;27.79;55.90
55079;BME280;55187;49.496;6.010;2022-07-23T10:13:08;97775.81;;;28.41;55.18
55079;BME280;55187;49.496;6.010;2022-07-23T10:15:47;97782.09;;;29.02;46.77
55079;BME280;55187;49.496;6.010;2022-07-23T10:18:13;97781.84;;;28.71;46.30
55079;BME280;55187;49.496;6.010;2022-07-23T10:20:39;97784.97;;;27.74;55.35
55079;BME280;55187;49.496;6.010;2022-07-23T10:23:22;97780.66;;;29.04;50.94
55079;BME280;55187;49.496;6.010;2022-07-23T10:25:58;97773.53;;;27.96;47.82
55079;BME280;55187;49.496;6.010;2022-07-23T10:31:14;97775.44;;;28.15;51.76
55079;BME280;55187;49.496;6.010;2022-07-23T10:33:46;97784.09;;;27.79;50.71
55079;BME280;55187;49.496;6.010;2022-07-23T10:36:40;97782.94;;;27.47;56.71
55079;BME280;55187;49.496;6.010;2022-07-23T10:41:43;97775.19;;;28.30;46.38
55079;BME280;55187;49.496;6.010;2022-07-23T10:44:10;97772.63;;;26.96;47.05
55079;BME280;55187;49.496;6.010;2022-07-23T10:49:22;97776.50;;;28.65;46.36
55079;BME280;55187;49.496;6.010;2022-07-23T10:54:27;97779.56;;;27.07;48.60
55079;BME280;55187;49.496;6.010;2022-07-23T11:02:21;97775.75;;;27.94;48.79
55079;BME280;55187;49.496;6.010;2022-07-23T11:04:49;97774.75;;;29.80;43.61
55079;BME280;55187;49.496;6.010;2022-07-23T11:07:15;97771.31;;;29.61;44.60
55079;BME280;55187;49.496;6.010;2022-07-23T11:09:42;97770.97;;;28.84;46.50
55079;BME280;55187;49.496;6.010;2022-07-23T11:17:26;97774.81;;;28.97;44.45
55079;BME280;55187;49.496;6.010;2022-07-23T11:25:10;97774.44;;;26.47;47.56
55079;BME280;55187;49.496;6.010;2022-07-23T11:27:45;97777.38;;;27.09;48.11
55079;BME280;55187;49.496;6.010;2022-07-23T11:32:50;97761.97;;;26.17;49.98
55079;BME280;55187;49.496;6.010;2022-07-23T11:35:20;97761.63;;;25.45;51.46
55079;BME280;55187;49.496;6.010;2022-07-23T11:37:46;97768.25;;;25.08;53.33
55079;BME280;55187;49.496;6.010;2022-07-23T11:40:14;97762.31;;;25.06;58.13
55079;BME280;55187;49.496;6.010;2022-07-23T11:45:19;97759.97;;;25.44;50.16
55079;BME280;55187;49.496;6.010;2022-07-23T11:47:45;97753.03;;;25.77;49.23
55079;BME280;55187;49.496;6.010;2022-07-23T11:50:11;97752.97;;;25.82;50.36
55079;BME280;55187;49.496;6.010;2022-07-23T11:52:38;97761.84;;;26.32;51.02
55079;BME280;55187;49.496;6.010;2022-07-23T11:55:08;97757.31;;;26.52;50.22
55079;BME280;55187;49.496;6.010;2022-07-23T11:57:36;97756.38;;;26.37;50.22
55079;BME280;55187;49.496;6.010;2022-07-23T12:00:05;97756.94;;;26.34;48.83
55079;BME280;55187;49.496;6.010;2022-07-23T12:02:38;97753.69;;;25.59;51.32
55079;BME280;55187;49.496;6.010;2022-07-23T12:05:05;97760.09;;;25.13;51.57
55079;BME280;55187;49.496;6.010;2022-07-23T12:07:41;97765.03;;;25.66;49.75
55079;BME280;55187;49.496;6.010;2022-07-23T12:10:12;97763.03;;;25.32;49.84
55079;BME280;55187;49.496;6.010;2022-07-23T12:12:41;97751.59;;;25.90;54.01
55079;BME280;55187;49.496;6.010;2022-07-23T12:15:08;97748.34;;;25.88;53.05
55079;BME280;55187;49.496;6.010;2022-07-23T12:17:35;97753.25;;;25.81;52.91
55079;BME280;55187;49.496;6.010;2022-07-23T12:20:03;97748.59;;;26.26;49.17
55079;BME280;55187;49.496;6.010;2022-07-23T12:22:41;97750.78;;;26.24;47.52
55079;BME280;55187;49.496;6.010;2022-07-23T12:25:11;97747.66;;;26.06;46.28
55079;BME280;55187;49.496;6.010;2022-07-23T12:27:38;97743.75;;;26.23;49.89
55079;BME280;55187;49.496;6.010;2022-07-23T12:32:43;97754.53;;;26.62;46.56
55079;BME280;55187;49.496;6.010;2022-07-23T12:35:12;97744.94;;;26.94;46.79
55079;BME280;55187;49.496;6.010;2022-07-23T12:37:40;97744.94;;;26.06;51.85
55079;BME280;55187;49.496;6.010;2022-07-23T12:42:50;97742.84;;;26.62;47.88
55079;BME280;55187;49.496;6.010;2022-07-23T12:45:17;97741.97;;;27.14;46.68
55079;BME280;55187;49.496;6.010;2022-07-23T12:50:41;97745.88;;;26.84;47.94
55079;BME280;55187;49.496;6.010;2022-07-23T12:53:14;97744.59;;;26.76;50.87
55079;BME280;55187;49.496;6.010;2022-07-23T12:55:41;97748.88;;;26.24;46.15
55079;BME280;55187;49.496;6.010;2022-07-23T12:58:11;97758.28;;;26.37;48.30
55079;BME280;55187;49.496;6.010;2022-07-23T13:03:28;97746.41;;;27.10;48.77
55079;BME280;55187;49.496;6.010;2022-07-23T13:05:56;97750.97;;;26.91;45.64
55079;BME280;55187;49.496;6.010;2022-07-23T13:08:24;97755.03;;;26.35;47.31
55079;BME280;55187;49.496;6.010;2022-07-23T13:10:50;97752.63;;;25.54;47.60
55079;BME280;55187;49.496;6.010;2022-07-23T13:13:23;97749.66;;;25.95;48.35
55079;BME280;55187;49.496;6.010;2022-07-23T13:15:49;97746.78;;;26.16;47.48
55079;BME280;55187;49.496;6.010;2022-07-23T13:18:18;97744.56;;;27.06;45.34
55079;BME280;55187;49.496;6.010;2022-07-23T13:20:48;97745.47;;;26.96;45.90
55079;BME280;55187;49.496;6.010;2022-07-23T13:23:14;97746.88;;;26.69;45.95
55079;BME280;55187;49.496;6.010;2022-07-23T13:25:41;97752.97;;;26.80;47.89
55079;BME280;55187;49.496;6.010;2022-07-23T13:28:07;97754.56;;;27.10;47.52
55079;BME280;55187;49.496;6.010;2022-07-23T13:30:37;97748.75;;;26.40;44.95
55079;BME280;55187;49.496;6.010;2022-07-23T13:33:05;97751.69;;;26.43;45.17
55079;BME280;55187;49.496;6.010;2022-07-23T13:35:34;97754.69;;;26.71;45.24
55079;BME280;55187;49.496;6.010;2022-07-23T13:38:01;97748.47;;;26.70;45.19
55079;BME280;55187;49.496;6.010;2022-07-23T13:40:31;97743.09;;;26.65;45.60
55079;BME280;55187;49.496;6.010;2022-07-23T13:43:00;97744.66;;;26.42;45.04
55079;BME280;55187;49.496;6.010;2022-07-23T13:45:27;97743.53;;;26.43;44.76
55079;BME280;55187;49.496;6.010;2022-07-23T13:47:53;97739.69;;;26.78;45.94
55079;BME280;55187;49.496;6.010;2022-07-23T13:50:19;97743.47;;;26.83;45.44